sensor_id;sensor_type;location;lat;lon;timestamp;temperature;humidity
19389;DHT22;9830;41.876;23.474;2023-04-25T00:02:06;9.70;99.90
19389;DHT22;9830;41.876;23.474;2023-04-25T00:04:32;9.70;99.90
19389;DHT22;9830;41.876;23.474;2023-04-25T00:06:59;9.60;99.90
19389;DHT22;9830;41.876;23.474;2023-04-25T00:09:28;9.60;99.90
19389;DHT22;9830;41.876;23.474;2023-04-25T00:11:53;9.60;99.90
19389;DHT22;9830;41.876;23.474;2023-04-25T00:14:19;9.70;99.90
19389;DHT22;9830;41.876;23.474;2023-04-25T00:16:45;9.70;99.90
19389;DHT22;9830;41.876;23.474;2023-04-25T00:19:11;9.70;99.90
19389;DHT22;9830;41.876;23.474;2023-04-25T00:21:36;9.70;99.90
19389;DHT22;9830;41.876;23.474;2023-04-25T00:24:06;9.70;99.90
19389;DHT22;9830;41.876;23.474;2023-04-25T00:26:33;9.70;99.90
19389;DHT22;9830;41.876;23.474;2023-04-25T00:29:00;9.60;99.90
19389;DHT22;9830;41.876;23.474;2023-04-25T00:31:25;9.50;99.90
19389;DHT22;9830;41.876;23.474;2023-04-25T00:33:51;9.40;99.90
19389;DHT22;9830;41.876;23.474;2023-04-25T00:36:18;9.40;99.90
19389;DHT22;9830;41.876;23.474;2023-04-25T00:38:44;9.40;99.90
19389;DHT22;9830;41.876;23.474;2023-04-25T00:41:10;9.30;99.90
19389;DHT22;9830;41.876;23.474;2023-04-25T00:43:36;9.30;99.90
19389;DHT22;9830;41.876;23.474;2023-04-25T00:46:03;9.20;99.90
19389;DHT22;9830;41.876;23.474;2023-04-25T00:48:29;9.20;99.90
19389;DHT22;9830;41.876;23.474;2023-04-25T00:50:57;9.20;99.90
19389;DHT22;9830;41.876;23.474;2023-04-25T00:53:24;9.30;99.90
19389;DHT22;9830;41.876;23.474;2023-04-25T00:55:51;9.20;99.90
19389;DHT22;9830;41.876;23.474;2023-04-25T00:58:18;9.20;99.90
19389;DHT22;9830;41.876;23.474;2023-04-25T01:00:47;9.20;99.90
19389;DHT22;9830;41.876;23.474;2023-04-25T01:03:14;9.20;99.90
19389;DHT22;9830;41.876;23.474;2023-04-25T01:05:43;9.20;99.90
19389;DHT22;9830;41.876;23.474;2023-04-25T01:08:09;9.20;99.90
19389;DHT22;9830;41.876;23.474;2023-04-25T01:10:35;9.20;99.90
19389;DHT22;9830;41.876;23.474;2023-04-25T01:13:01;9.20;99.90
19389;DHT22;9830;41.876;23.474;2023-04-25T01:15:27;9.20;99.90
19389;DHT22;9830;41.876;23.474;2023-04-25T01:17:53;9.10;99.90
19389;DHT22;9830;41.876;23.474;2023-04-25T01:20:22;9.00;99.90
19389;DHT22;9830;41.876;23.474;2023-04-25T01:22:49;9.00;99.90
19389;DHT22;9830;41.876;23.474;2023-04-25T01:25:16;9.00;99.90
19389;DHT22;9830;41.876;23.474;2023-04-25T01:27:42;9.00;99.90
19389;DHT22;9830;41.876;23.474;2023-04-25T01:30:09;9.00;99.90
19389;DHT22;9830;41.876;23.474;2023-04-25T01:32:35;9.00;99.90
19389;DHT22;9830;41.876;23.474;2023-04-25T01:35:08;9.00;99.90
19389;DHT22;9830;41.876;23.474;2023-04-25T01:37:41;8.90;99.90
19389;DHT22;9830;41.876;23.474;2023-04-25T01:40:12;8.80;99.90
19389;DHT22;9830;41.876;23.474;2023-04-25T01:42:40;8.80;99.90
19389;DHT22;9830;41.876;23.474;2023-04-25T01:45:07;8.80;99.90
19389;DHT22;9830;41.876;23.474;2023-04-25T01:47:33;8.80;99.90
19389;DHT22;9830;41.876;23.474;2023-04-25T01:50:04;8.90;99.90
19389;DHT22;9830;41.876;23.474;2023-04-25T01:52:30;8.80;99.90
19389;DHT22;9830;41.876;23.474;2023-04-25T01:54:57;8.80;99.90
19389;DHT22;9830;41.876;23.474;2023-04-25T01:57:23;8.80;99.90
19389;DHT22;9830;41.876;23.474;2023-04-25T01:59:49;8.90;99.90
19389;DHT22;9830;41.876;23.474;2023-04-25T02:02:15;8.90;99.90
19389;DHT22;9830;41.876;23.474;2023-04-25T02:04:40;8.90;99.90
19389;DHT22;9830;41.876;23.474;2023-04-25T02:07:06;8.80;99.90
19389;DHT22;9830;41.876;23.474;2023-04-25T02:09:32;8.80;99.90
19389;DHT22;9830;41.876;23.474;2023-04-25T02:11:58;8.90;99.90
19389;DHT22;9830;41.876;23.474;2023-04-25T02:14:23;9.00;99.90
19389;DHT22;9830;41.876;23.474;2023-04-25T02:16:49;9.00;99.90
19389;DHT22;9830;41.876;23.474;2023-04-25T02:19:16;9.00;99.90
19389;DHT22;9830;41.876;23.474;2023-04-25T02:21:42;9.00;99.90
19389;DHT22;9830;41.876;23.474;2023-04-25T02:24:08;9.00;99.90
19389;DHT22;9830;41.876;23.474;2023-04-25T02:26:34;9.00;99.90
19389;DHT22;9830;41.876;23.474;2023-04-25T02:28:59;9.00;99.90
19389;DHT22;9830;41.876;23.474;2023-04-25T02:31:26;9.00;99.90
19389;DHT22;9830;41.876;23.474;2023-04-25T02:33:52;8.90;99.90
19389;DHT22;9830;41.876;23.474;2023-04-25T02:36:17;8.90;99.90
19389;DHT22;9830;41.876;23.474;2023-04-25T02:38:43;8.90;99.90
19389;DHT22;9830;41.876;23.474;2023-04-25T02:41:09;8.90;99.90
19389;DHT22;9830;41.876;23.474;2023-04-25T02:43:35;8.90;99.90
19389;DHT22;9830;41.876;23.474;2023-04-25T02:46:00;9.00;99.90
19389;DHT22;9830;41.876;23.474;2023-04-25T02:48:26;9.00;99.90
19389;DHT22;9830;41.876;23.474;2023-04-25T02:50:52;9.00;99.90
19389;DHT22;9830;41.876;23.474;2023-04-25T02:53:17;9.00;99.90
19389;DHT22;9830;41.876;23.474;2023-04-25T02:55:43;8.90;99.90
19389;DHT22;9830;41.876;23.474;2023-04-25T02:58:08;8.90;99.90
19389;DHT22;9830;41.876;23.474;2023-04-25T03:00:35;8.90;99.90
19389;DHT22;9830;41.876;23.474;2023-04-25T03:03:01;8.90;99.90
19389;DHT22;9830;41.876;23.474;2023-04-25T03:05:26;8.80;99.90
19389;DHT22;9830;41.876;23.474;2023-04-25T03:07:52;8.80;99.90
19389;DHT22;9830;41.876;23.474;2023-04-25T03:10:18;8.80;99.90
19389;DHT22;9830;41.876;23.474;2023-04-25T03:12:44;8.70;99.90
19389;DHT22;9830;41.876;23.474;2023-04-25T03:15:09;8.70;99.90
19389;DHT22;9830;41.876;23.474;2023-04-25T03:17:36;8.70;99.90
19389;DHT22;9830;41.876;23.474;2023-04-25T03:20:02;8.60;99.90
19389;DHT22;9830;41.876;23.474;2023-04-25T03:22:29;8.60;99.90
19389;DHT22;9830;41.876;23.474;2023-04-25T03:24:55;8.70;99.90
19389;DHT22;9830;41.876;23.474;2023-04-25T03:27:20;8.70;99.90
19389;DHT22;9830;41.876;23.474;2023-04-25T03:29:46;8.70;99.90
19389;DHT22;9830;41.876;23.474;2023-04-25T03:32:12;8.70;99.90
19389;DHT22;9830;41.876;23.474;2023-04-25T03:34:37;8.70;99.90
19389;DHT22;9830;41.876;23.474;2023-04-25T03:37:03;8.60;99.90
19389;DHT22;9830;41.876;23.474;2023-04-25T03:39:29;8.70;99.90
19389;DHT22;9830;41.876;23.474;2023-04-25T03:41:55;8.60;99.90
19389;DHT22;9830;41.876;23.474;2023-04-25T03:44:20;8.60;99.90
19389;DHT22;9830;41.876;23.474;2023-04-25T03:46:46;8.70;99.90
19389;DHT22;9830;41.876;23.474;2023-04-25T03:49:12;8.80;99.90
19389;DHT22;9830;41.876;23.474;2023-04-25T03:51:37;8.80;99.90
19389;DHT22;9830;41.876;23.474;2023-04-25T03:54:03;8.70;99.90
19389;DHT22;9830;41.876;23.474;2023-04-25T03:56:29;8.70;99.90
19389;DHT22;9830;41.876;23.474;2023-04-25T03:58:55;8.70;99.90
19389;DHT22;9830;41.876;23.474;2023-04-25T04:01:20;8.70;99.90
19389;DHT22;9830;41.876;23.474;2023-04-25T04:03:46;8.70;99.90
19389;DHT22;9830;41.876;23.474;2023-04-25T04:06:12;8.90;99.90
19389;DHT22;9830;41.876;23.474;2023-04-25T04:08:38;8.90;99.90
19389;DHT22;9830;41.876;23.474;2023-04-25T04:11:04;8.80;99.90
19389;DHT22;9830;41.876;23.474;2023-04-25T04:13:30;8.80;99.90
19389;DHT22;9830;41.876;23.474;2023-04-25T04:15:56;8.80;99.90
19389;DHT22;9830;41.876;23.474;2023-04-25T04:18:21;9.00;99.90
19389;DHT22;9830;41.876;23.474;2023-04-25T04:20:47;8.90;99.90
19389;DHT22;9830;41.876;23.474;2023-04-25T04:23:13;8.90;99.90
19389;DHT22;9830;41.876;23.474;2023-04-25T04:25:39;8.90;99.90
19389;DHT22;9830;41.876;23.474;2023-04-25T04:28:05;8.90;99.90
19389;DHT22;9830;41.876;23.474;2023-04-25T04:30:31;9.00;99.90
19389;DHT22;9830;41.876;23.474;2023-04-25T04:32:59;9.10;99.90
19389;DHT22;9830;41.876;23.474;2023-04-25T04:35:26;9.30;99.90
19389;DHT22;9830;41.876;23.474;2023-04-25T04:37:52;9.30;99.90
19389;DHT22;9830;41.876;23.474;2023-04-25T04:40:18;9.30;99.90
19389;DHT22;9830;41.876;23.474;2023-04-25T04:42:45;9.30;99.90
19389;DHT22;9830;41.876;23.474;2023-04-25T04:45:11;9.20;99.90
19389;DHT22;9830;41.876;23.474;2023-04-25T04:47:38;9.20;99.90
19389;DHT22;9830;41.876;23.474;2023-04-25T04:50:06;9.40;99.90
19389;DHT22;9830;41.876;23.474;2023-04-25T04:52:34;9.50;99.90
19389;DHT22;9830;41.876;23.474;2023-04-25T04:55:01;9.60;99.90
19389;DHT22;9830;41.876;23.474;2023-04-25T04:57:28;9.70;99.90
19389;DHT22;9830;41.876;23.474;2023-04-25T04:59:54;9.80;99.90
19389;DHT22;9830;41.876;23.474;2023-04-25T05:02:20;9.90;99.90
19389;DHT22;9830;41.876;23.474;2023-04-25T05:04:46;9.90;99.90
19389;DHT22;9830;41.876;23.474;2023-04-25T05:07:12;9.80;99.90
19389;DHT22;9830;41.876;23.474;2023-04-25T05:09:41;9.90;99.90
19389;DHT22;9830;41.876;23.474;2023-04-25T05:12:07;10.00;99.90
19389;DHT22;9830;41.876;23.474;2023-04-25T05:14:33;10.10;99.90
19389;DHT22;9830;41.876;23.474;2023-04-25T05:16:59;10.40;99.90
19389;DHT22;9830;41.876;23.474;2023-04-25T05:19:25;10.40;99.90
19389;DHT22;9830;41.876;23.474;2023-04-25T05:21:50;10.40;99.90
19389;DHT22;9830;41.876;23.474;2023-04-25T05:24:16;10.50;99.90
19389;DHT22;9830;41.876;23.474;2023-04-25T05:26:42;10.50;99.90
19389;DHT22;9830;41.876;23.474;2023-04-25T05:29:08;10.80;99.90
19389;DHT22;9830;41.876;23.474;2023-04-25T05:31:33;10.60;99.90
19389;DHT22;9830;41.876;23.474;2023-04-25T05:33:59;10.60;99.90
19389;DHT22;9830;41.876;23.474;2023-04-25T05:36:25;10.80;99.90
19389;DHT22;9830;41.876;23.474;2023-04-25T05:38:51;10.70;99.90
19389;DHT22;9830;41.876;23.474;2023-04-25T05:41:17;10.60;99.90
19389;DHT22;9830;41.876;23.474;2023-04-25T05:43:43;10.60;99.90
19389;DHT22;9830;41.876;23.474;2023-04-25T05:46:12;10.50;99.90
19389;DHT22;9830;41.876;23.474;2023-04-25T05:48:40;10.60;99.90
19389;DHT22;9830;41.876;23.474;2023-04-25T05:51:05;10.60;99.90
19389;DHT22;9830;41.876;23.474;2023-04-25T05:53:31;10.70;99.90
19389;DHT22;9830;41.876;23.474;2023-04-25T05:55:57;10.90;99.90
19389;DHT22;9830;41.876;23.474;2023-04-25T05:58:23;11.30;99.90
19389;DHT22;9830;41.876;23.474;2023-04-25T06:00:49;11.90;99.90
19389;DHT22;9830;41.876;23.474;2023-04-25T06:03:15;13.00;99.90
19389;DHT22;9830;41.876;23.474;2023-04-25T06:05:42;15.50;99.90
19389;DHT22;9830;41.876;23.474;2023-04-25T06:08:08;17.70;99.90
19389;DHT22;9830;41.876;23.474;2023-04-25T06:10:34;19.80;99.30
19389;DHT22;9830;41.876;23.474;2023-04-25T06:13:00;21.50;91.90
19389;DHT22;9830;41.876;23.474;2023-04-25T06:15:26;22.80;75.40
19389;DHT22;9830;41.876;23.474;2023-04-25T06:17:52;22.10;73.50
19389;DHT22;9830;41.876;23.474;2023-04-25T06:20:18;23.10;68.40
19389;DHT22;9830;41.876;23.474;2023-04-25T06:22:48;23.30;60.00
19389;DHT22;9830;41.876;23.474;2023-04-25T06:25:17;21.80;72.20
19389;DHT22;9830;41.876;23.474;2023-04-25T06:27:43;24.80;61.50
19389;DHT22;9830;41.876;23.474;2023-04-25T06:30:09;26.50;54.40
19389;DHT22;9830;41.876;23.474;2023-04-25T06:32:37;26.30;48.00
19389;DHT22;9830;41.876;23.474;2023-04-25T06:35:04;23.80;54.80
19389;DHT22;9830;41.876;23.474;2023-04-25T06:37:32;22.00;63.80
19389;DHT22;9830;41.876;23.474;2023-04-25T06:39:58;22.10;67.00
19389;DHT22;9830;41.876;23.474;2023-04-25T06:42:23;22.00;66.30
19389;DHT22;9830;41.876;23.474;2023-04-25T06:44:49;21.10;67.00
19389;DHT22;9830;41.876;23.474;2023-04-25T06:47:15;20.50;76.20
19389;DHT22;9830;41.876;23.474;2023-04-25T06:49:41;20.10;77.20
19389;DHT22;9830;41.876;23.474;2023-04-25T06:52:07;19.50;83.40
19389;DHT22;9830;41.876;23.474;2023-04-25T06:54:34;18.90;90.40
19389;DHT22;9830;41.876;23.474;2023-04-25T06:57:00;18.30;93.30
19389;DHT22;9830;41.876;23.474;2023-04-25T06:59:26;18.50;92.20
19389;DHT22;9830;41.876;23.474;2023-04-25T07:01:52;18.70;91.40
19389;DHT22;9830;41.876;23.474;2023-04-25T07:04:18;20.20;82.60
19389;DHT22;9830;41.876;23.474;2023-04-25T07:06:45;22.70;65.00
19389;DHT22;9830;41.876;23.474;2023-04-25T07:09:12;24.30;55.60
19389;DHT22;9830;41.876;23.474;2023-04-25T07:11:41;24.30;52.00
19389;DHT22;9830;41.876;23.474;2023-04-25T07:14:07;24.10;52.10
19389;DHT22;9830;41.876;23.474;2023-04-25T07:16:34;23.40;54.70
19389;DHT22;9830;41.876;23.474;2023-04-25T07:19:00;23.00;55.50
19389;DHT22;9830;41.876;23.474;2023-04-25T07:21:26;24.30;51.40
19389;DHT22;9830;41.876;23.474;2023-04-25T07:23:52;24.20;50.70
19389;DHT22;9830;41.876;23.474;2023-04-25T07:26:18;23.40;51.90
19389;DHT22;9830;41.876;23.474;2023-04-25T07:28:44;22.80;55.40
19389;DHT22;9830;41.876;23.474;2023-04-25T07:31:09;21.80;62.60
19389;DHT22;9830;41.876;23.474;2023-04-25T07:33:35;22.50;55.50
19389;DHT22;9830;41.876;23.474;2023-04-25T07:36:04;23.10;54.70
19389;DHT22;9830;41.876;23.474;2023-04-25T07:38:30;22.50;55.40
19389;DHT22;9830;41.876;23.474;2023-04-25T07:40:56;22.20;54.80
19389;DHT22;9830;41.876;23.474;2023-04-25T07:43:22;21.00;61.50
19389;DHT22;9830;41.876;23.474;2023-04-25T07:45:48;19.90;67.70
19389;DHT22;9830;41.876;23.474;2023-04-25T07:48:17;19.80;74.90
19389;DHT22;9830;41.876;23.474;2023-04-25T07:50:46;21.90;63.70
19389;DHT22;9830;41.876;23.474;2023-04-25T07:53:12;23.90;56.10
19389;DHT22;9830;41.876;23.474;2023-04-25T07:55:38;25.10;49.80
19389;DHT22;9830;41.876;23.474;2023-04-25T07:58:09;25.00;48.00
19389;DHT22;9830;41.876;23.474;2023-04-25T08:00:35;25.60;47.00
19389;DHT22;9830;41.876;23.474;2023-04-25T08:03:02;25.10;48.30
19389;DHT22;9830;41.876;23.474;2023-04-25T08:05:28;24.00;50.60
19389;DHT22;9830;41.876;23.474;2023-04-25T08:07:54;24.60;52.00
19389;DHT22;9830;41.876;23.474;2023-04-25T08:10:22;23.80;49.20
19389;DHT22;9830;41.876;23.474;2023-04-25T08:12:48;22.60;52.60
19389;DHT22;9830;41.876;23.474;2023-04-25T08:15:14;21.60;57.50
19389;DHT22;9830;41.876;23.474;2023-04-25T08:17:40;21.10;61.90
19389;DHT22;9830;41.876;23.474;2023-04-25T08:20:07;19.70;72.80
19389;DHT22;9830;41.876;23.474;2023-04-25T08:22:34;20.30;69.00
19389;DHT22;9830;41.876;23.474;2023-04-25T08:25:03;20.80;63.80
19389;DHT22;9830;41.876;23.474;2023-04-25T08:27:29;21.00;58.90
19389;DHT22;9830;41.876;23.474;2023-04-25T08:29:55;21.40;60.80
19389;DHT22;9830;41.876;23.474;2023-04-25T08:32:21;22.80;55.10
19389;DHT22;9830;41.876;23.474;2023-04-25T08:34:47;24.30;52.40
19389;DHT22;9830;41.876;23.474;2023-04-25T08:37:13;25.10;46.80
19389;DHT22;9830;41.876;23.474;2023-04-25T08:39:39;25.90;43.60
19389;DHT22;9830;41.876;23.474;2023-04-25T08:42:09;27.30;39.90
19389;DHT22;9830;41.876;23.474;2023-04-25T08:44:36;26.40;38.60
19389;DHT22;9830;41.876;23.474;2023-04-25T08:47:06;27.20;39.70
19389;DHT22;9830;41.876;23.474;2023-04-25T08:49:33;26.90;39.40
19389;DHT22;9830;41.876;23.474;2023-04-25T08:52:02;26.90;40.30
19389;DHT22;9830;41.876;23.474;2023-04-25T08:54:31;26.20;38.40
19389;DHT22;9830;41.876;23.474;2023-04-25T08:57:01;26.80;39.80
19389;DHT22;9830;41.876;23.474;2023-04-25T08:59:32;26.90;38.50
19389;DHT22;9830;41.876;23.474;2023-04-25T09:02:02;27.90;39.40
19389;DHT22;9830;41.876;23.474;2023-04-25T09:04:31;27.70;37.60
19389;DHT22;9830;41.876;23.474;2023-04-25T09:06:59;25.00;41.50
19389;DHT22;9830;41.876;23.474;2023-04-25T09:09:25;24.40;44.50
19389;DHT22;9830;41.876;23.474;2023-04-25T09:11:54;25.70;41.70
19389;DHT22;9830;41.876;23.474;2023-04-25T09:14:22;27.30;39.30
19389;DHT22;9830;41.876;23.474;2023-04-25T09:16:58;27.70;40.20
19389;DHT22;9830;41.876;23.474;2023-04-25T09:19:30;28.70;37.70
19389;DHT22;9830;41.876;23.474;2023-04-25T09:21:59;28.90;32.20
19389;DHT22;9830;41.876;23.474;2023-04-25T09:24:40;28.40;30.30
19389;DHT22;9830;41.876;23.474;2023-04-25T09:27:11;27.60;36.50
19389;DHT22;9830;41.876;23.474;2023-04-25T09:29:40;25.20;39.70
19389;DHT22;9830;41.876;23.474;2023-04-25T09:32:20;24.50;43.00
19389;DHT22;9830;41.876;23.474;2023-04-25T09:34:56;24.10;39.70
19389;DHT22;9830;41.876;23.474;2023-04-25T09:37:24;23.80;39.80
19389;DHT22;9830;41.876;23.474;2023-04-25T09:39:59;22.20;40.20
19389;DHT22;9830;41.876;23.474;2023-04-25T09:42:29;23.20;44.90
19389;DHT22;9830;41.876;23.474;2023-04-25T09:44:57;24.40;42.10
19389;DHT22;9830;41.876;23.474;2023-04-25T09:47:25;24.90;39.80
19389;DHT22;9830;41.876;23.474;2023-04-25T09:49:52;25.50;37.50
19389;DHT22;9830;41.876;23.474;2023-04-25T09:52:23;25.60;37.80
19389;DHT22;9830;41.876;23.474;2023-04-25T09:54:51;25.00;40.50
19389;DHT22;9830;41.876;23.474;2023-04-25T09:57:22;24.90;38.20
19389;DHT22;9830;41.876;23.474;2023-04-25T09:59:53;23.10;37.60
19389;DHT22;9830;41.876;23.474;2023-04-25T10:02:25;23.20;40.40
19389;DHT22;9830;41.876;23.474;2023-04-25T10:04:53;22.50;41.50
19389;DHT22;9830;41.876;23.474;2023-04-25T10:07:22;22.20;40.10
19389;DHT22;9830;41.876;23.474;2023-04-25T10:09:57;21.50;41.30
19389;DHT22;9830;41.876;23.474;2023-04-25T10:12:26;22.00;42.80
19389;DHT22;9830;41.876;23.474;2023-04-25T10:14:52;21.70;39.40
19389;DHT22;9830;41.876;23.474;2023-04-25T10:17:20;21.50;40.50
19389;DHT22;9830;41.876;23.474;2023-04-25T10:19:49;20.90;39.50
19389;DHT22;9830;41.876;23.474;2023-04-25T10:22:35;21.20;39.50
19389;DHT22;9830;41.876;23.474;2023-04-25T10:25:02;21.30;40.00
19389;DHT22;9830;41.876;23.474;2023-04-25T10:27:32;21.80;41.90
19389;DHT22;9830;41.876;23.474;2023-04-25T10:30:08;22.40;36.40
19389;DHT22;9830;41.876;23.474;2023-04-25T10:32:38;22.40;36.90
19389;DHT22;9830;41.876;23.474;2023-04-25T10:37:57;22.90;37.90
19389;DHT22;9830;41.876;23.474;2023-04-25T10:40:27;23.30;42.30
19389;DHT22;9830;41.876;23.474;2023-04-25T10:43:38;23.80;38.60
19389;DHT22;9830;41.876;23.474;2023-04-25T10:46:25;23.30;37.40
19389;DHT22;9830;41.876;23.474;2023-04-25T10:48:54;23.20;36.30
19389;DHT22;9830;41.876;23.474;2023-04-25T10:54:00;22.90;36.90
19389;DHT22;9830;41.876;23.474;2023-04-25T10:56:37;23.40;38.90
19389;DHT22;9830;41.876;23.474;2023-04-25T10:59:09;23.80;39.40
19389;DHT22;9830;41.876;23.474;2023-04-25T11:01:41;23.80;37.60
19389;DHT22;9830;41.876;23.474;2023-04-25T11:04:28;23.60;37.60
19389;DHT22;9830;41.876;23.474;2023-04-25T11:07:10;23.30;36.80
19389;DHT22;9830;41.876;23.474;2023-04-25T11:09:40;23.60;37.80
19389;DHT22;9830;41.876;23.474;2023-04-25T11:12:13;22.70;40.80
19389;DHT22;9830;41.876;23.474;2023-04-25T11:14:39;23.00;39.80
19389;DHT22;9830;41.876;23.474;2023-04-25T11:17:05;23.50;37.30
19389;DHT22;9830;41.876;23.474;2023-04-25T11:19:32;23.60;38.00
19389;DHT22;9830;41.876;23.474;2023-04-25T11:21:59;23.40;40.60
19389;DHT22;9830;41.876;23.474;2023-04-25T11:24:31;22.70;40.50
19389;DHT22;9830;41.876;23.474;2023-04-25T11:27:04;21.70;41.10
19389;DHT22;9830;41.876;23.474;2023-04-25T11:29:35;20.90;41.80
19389;DHT22;9830;41.876;23.474;2023-04-25T11:32:01;21.30;41.90
19389;DHT22;9830;41.876;23.474;2023-04-25T11:34:28;21.10;45.00
19389;DHT22;9830;41.876;23.474;2023-04-25T11:37:02;20.40;45.80
19389;DHT22;9830;41.876;23.474;2023-04-25T11:39:31;18.50;51.50
19389;DHT22;9830;41.876;23.474;2023-04-25T11:42:00;18.00;53.90
19389;DHT22;9830;41.876;23.474;2023-04-25T11:44:29;18.50;53.40
19389;DHT22;9830;41.876;23.474;2023-04-25T11:46:55;18.30;51.70
19389;DHT22;9830;41.876;23.474;2023-04-25T11:49:21;18.30;51.40
19389;DHT22;9830;41.876;23.474;2023-04-25T11:51:48;19.50;53.40
19389;DHT22;9830;41.876;23.474;2023-04-25T11:54:14;19.70;48.90
19389;DHT22;9830;41.876;23.474;2023-04-25T11:56:44;19.70;49.50
19389;DHT22;9830;41.876;23.474;2023-04-25T11:59:11;20.30;51.80
19389;DHT22;9830;41.876;23.474;2023-04-25T12:01:46;20.40;46.00
19389;DHT22;9830;41.876;23.474;2023-04-25T12:04:24;20.30;43.90
19389;DHT22;9830;41.876;23.474;2023-04-25T12:06:56;20.90;45.30
19389;DHT22;9830;41.876;23.474;2023-04-25T12:09:33;20.60;45.90
19389;DHT22;9830;41.876;23.474;2023-04-25T12:12:04;20.70;47.20
19389;DHT22;9830;41.876;23.474;2023-04-25T12:14:34;20.20;42.00
19389;DHT22;9830;41.876;23.474;2023-04-25T12:17:03;19.70;44.10
19389;DHT22;9830;41.876;23.474;2023-04-25T12:19:37;19.70;45.20
19389;DHT22;9830;41.876;23.474;2023-04-25T12:22:19;20.20;44.50
19389;DHT22;9830;41.876;23.474;2023-04-25T12:24:46;20.50;44.60
19389;DHT22;9830;41.876;23.474;2023-04-25T12:27:17;20.40;44.00
19389;DHT22;9830;41.876;23.474;2023-04-25T12:29:52;20.40;44.20
19389;DHT22;9830;41.876;23.474;2023-04-25T12:32:22;20.20;44.00
19389;DHT22;9830;41.876;23.474;2023-04-25T12:34:47;19.70;44.30
19389;DHT22;9830;41.876;23.474;2023-04-25T12:37:13;19.50;45.20
19389;DHT22;9830;41.876;23.474;2023-04-25T12:39:39;19.30;45.70
19389;DHT22;9830;41.876;23.474;2023-04-25T12:42:06;19.40;46.20
19389;DHT22;9830;41.876;23.474;2023-04-25T12:44:41;19.50;46.40
19389;DHT22;9830;41.876;23.474;2023-04-25T12:47:08;19.70;46.50
19389;DHT22;9830;41.876;23.474;2023-04-25T12:49:34;19.90;45.90
19389;DHT22;9830;41.876;23.474;2023-04-25T12:52:00;20.00;47.30
19389;DHT22;9830;41.876;23.474;2023-04-25T12:54:26;20.10;45.80
19389;DHT22;9830;41.876;23.474;2023-04-25T12:56:52;20.20;47.60
19389;DHT22;9830;41.876;23.474;2023-04-25T12:59:18;20.70;46.20
19389;DHT22;9830;41.876;23.474;2023-04-25T13:01:45;21.10;44.40
19389;DHT22;9830;41.876;23.474;2023-04-25T13:04:11;21.30;45.80
19389;DHT22;9830;41.876;23.474;2023-04-25T13:06:37;21.20;47.50
19389;DHT22;9830;41.876;23.474;2023-04-25T13:09:03;21.10;46.00
19389;DHT22;9830;41.876;23.474;2023-04-25T13:11:30;20.90;45.10
19389;DHT22;9830;41.876;23.474;2023-04-25T13:13:56;20.40;45.10
19389;DHT22;9830;41.876;23.474;2023-04-25T13:16:25;20.20;46.80
19389;DHT22;9830;41.876;23.474;2023-04-25T13:18:52;19.40;46.00
19389;DHT22;9830;41.876;23.474;2023-04-25T13:21:18;19.10;48.10
19389;DHT22;9830;41.876;23.474;2023-04-25T13:23:43;19.10;48.40
19389;DHT22;9830;41.876;23.474;2023-04-25T13:26:10;18.30;50.80
19389;DHT22;9830;41.876;23.474;2023-04-25T13:28:36;17.40;55.40
19389;DHT22;9830;41.876;23.474;2023-04-25T13:31:02;17.30;58.00
19389;DHT22;9830;41.876;23.474;2023-04-25T13:33:28;16.80;60.30
19389;DHT22;9830;41.876;23.474;2023-04-25T13:35:54;16.50;64.00
19389;DHT22;9830;41.876;23.474;2023-04-25T13:38:23;16.20;71.10
19389;DHT22;9830;41.876;23.474;2023-04-25T13:40:49;15.90;90.00
19389;DHT22;9830;41.876;23.474;2023-04-25T13:43:20;15.50;90.80
19389;DHT22;9830;41.876;23.474;2023-04-25T13:45:48;15.10;91.80
19389;DHT22;9830;41.876;23.474;2023-04-25T13:48:14;15.20;94.80
19389;DHT22;9830;41.876;23.474;2023-04-25T13:50:40;15.10;97.60
19389;DHT22;9830;41.876;23.474;2023-04-25T13:53:05;14.90;98.40
19389;DHT22;9830;41.876;23.474;2023-04-25T13:55:32;14.50;99.90
19389;DHT22;9830;41.876;23.474;2023-04-25T13:57:58;14.10;99.90
19389;DHT22;9830;41.876;23.474;2023-04-25T14:00:27;14.00;99.90
19389;DHT22;9830;41.876;23.474;2023-04-25T14:02:53;14.00;99.90
19389;DHT22;9830;41.876;23.474;2023-04-25T14:05:18;14.00;99.90
19389;DHT22;9830;41.876;23.474;2023-04-25T14:07:44;13.90;99.90
19389;DHT22;9830;41.876;23.474;2023-04-25T14:10:10;13.80;99.90
19389;DHT22;9830;41.876;23.474;2023-04-25T14:12:36;13.80;99.90
19389;DHT22;9830;41.876;23.474;2023-04-25T14:15:02;13.90;99.90
19389;DHT22;9830;41.876;23.474;2023-04-25T14:17:28;14.30;99.90
19389;DHT22;9830;41.876;23.474;2023-04-25T14:19:55;14.70;99.90
19389;DHT22;9830;41.876;23.474;2023-04-25T14:22:21;15.00;99.90
19389;DHT22;9830;41.876;23.474;2023-04-25T14:24:50;15.30;99.90
19389;DHT22;9830;41.876;23.474;2023-04-25T14:27:16;15.30;99.90
19389;DHT22;9830;41.876;23.474;2023-04-25T14:29:42;15.50;99.90
19389;DHT22;9830;41.876;23.474;2023-04-25T14:32:08;15.60;99.90
19389;DHT22;9830;41.876;23.474;2023-04-25T14:34:34;15.60;99.90
19389;DHT22;9830;41.876;23.474;2023-04-25T14:37:00;15.60;99.90
19389;DHT22;9830;41.876;23.474;2023-04-25T14:39:26;15.50;99.90
19389;DHT22;9830;41.876;23.474;2023-04-25T14:41:51;15.70;99.70
19389;DHT22;9830;41.876;23.474;2023-04-25T14:44:17;16.10;97.30
19389;DHT22;9830;41.876;23.474;2023-04-25T14:46:43;16.40;95.50
19389;DHT22;9830;41.876;23.474;2023-04-25T14:49:08;16.30;96.20
19389;DHT22;9830;41.876;23.474;2023-04-25T14:51:34;16.20;95.80
19389;DHT22;9830;41.876;23.474;2023-04-25T14:54:00;16.20;95.00
19389;DHT22;9830;41.876;23.474;2023-04-25T14:56:25;15.90;96.40
19389;DHT22;9830;41.876;23.474;2023-04-25T14:58:51;15.70;94.40
19389;DHT22;9830;41.876;23.474;2023-04-25T15:01:17;15.50;96.20
19389;DHT22;9830;41.876;23.474;2023-04-25T15:03:43;15.20;97.50
19389;DHT22;9830;41.876;23.474;2023-04-25T15:06:09;14.90;97.20
19389;DHT22;9830;41.876;23.474;2023-04-25T15:08:35;14.80;95.50
19389;DHT22;9830;41.876;23.474;2023-04-25T15:11:01;14.70;96.80
19389;DHT22;9830;41.876;23.474;2023-04-25T15:13:28;14.50;99.90
19389;DHT22;9830;41.876;23.474;2023-04-25T15:15:54;14.50;99.60
19389;DHT22;9830;41.876;23.474;2023-04-25T15:18:21;14.50;99.90
19389;DHT22;9830;41.876;23.474;2023-04-25T15:20:48;14.40;99.90
19389;DHT22;9830;41.876;23.474;2023-04-25T15:23:14;14.50;99.50
19389;DHT22;9830;41.876;23.474;2023-04-25T15:25:39;14.50;99.10
19389;DHT22;9830;41.876;23.474;2023-04-25T15:28:05;14.50;99.90
19389;DHT22;9830;41.876;23.474;2023-04-25T15:30:31;14.50;99.00
19389;DHT22;9830;41.876;23.474;2023-04-25T15:32:57;14.40;99.30
19389;DHT22;9830;41.876;23.474;2023-04-25T15:35:22;14.20;99.90
19389;DHT22;9830;41.876;23.474;2023-04-25T15:37:48;14.30;99.90
19389;DHT22;9830;41.876;23.474;2023-04-25T15:40:16;14.10;99.60
19389;DHT22;9830;41.876;23.474;2023-04-25T15:42:46;14.00;99.90